createdAt,value
2022-08-03T00:00:51.913Z,26.48
2022-08-03T00:06:04.851Z,26.41
2022-08-03T00:11:07.354Z,26.35
2022-08-03T00:16:11.136Z,26.28
2022-08-03T00:21:13.152Z,26.25
2022-08-03T00:26:17.499Z,26.20
2022-08-03T00:31:40.108Z,26.16
2022-08-03T00:36:45.022Z,26.11
2022-08-03T00:41:46.707Z,26.06
2022-08-03T00:46:48.794Z,26.01
2022-08-03T00:51:50.996Z,25.96
2022-08-03T00:56:59.575Z,25.91
2022-08-03T01:02:02.729Z,25.84
2022-08-03T01:08:00.519Z,25.73
2022-08-03T01:14:02.335Z,25.67
2022-08-03T01:19:13.271Z,25.61
2022-08-03T01:24:29.986Z,25.56
2022-08-03T01:30:03.978Z,25.50
2022-08-03T01:35:12.872Z,25.46
2022-08-03T01:40:16.242Z,25.40
2022-08-03T01:45:19.698Z,25.34
2022-08-03T01:50:24.987Z,25.30
2022-08-03T01:55:32.078Z,25.25
2022-08-03T02:00:36.802Z,25.20
2022-08-03T02:05:43.055Z,25.16
2022-08-03T02:10:46.329Z,25.13
2022-08-03T02:15:49.220Z,25.08
2022-08-03T02:20:57.096Z,25.05
2022-08-03T02:26:10.827Z,25.04
2022-08-03T02:31:23.113Z,25.00
2022-08-03T02:36:37.717Z,24.97
2022-08-03T02:41:47.274Z,24.93
2022-08-03T02:46:53.527Z,24.91
2022-08-03T02:51:57.388Z,24.88
2022-08-03T02:57:02.324Z,24.85
2022-08-03T03:02:04.606Z,24.80
2022-08-03T03:07:07.046Z,24.77
2022-08-03T03:12:13.409Z,24.72
2022-08-03T03:17:17.111Z,24.69
2022-08-03T03:22:19.772Z,24.65
2022-08-03T03:27:24.087Z,24.62
2022-08-03T03:32:30.167Z,24.59
2022-08-03T03:37:41.082Z,24.55
2022-08-03T03:42:44.323Z,24.51
2022-08-03T03:47:46.314Z,24.48
2022-08-03T03:52:58.746Z,24.47
2022-08-03T03:58:16.867Z,24.45
2022-08-03T04:03:18.540Z,24.42
2022-08-03T04:08:42.023Z,24.39
2022-08-03T04:14:23.765Z,24.36
2022-08-03T04:19:47.806Z,24.36
2022-08-03T04:25:01.435Z,24.36
2022-08-03T04:30:07.360Z,24.37
2022-08-03T04:35:09.487Z,24.38
2022-08-03T04:40:14.842Z,24.41
2022-08-03T04:45:19.334Z,24.42
2022-08-03T04:50:22.244Z,24.44
2022-08-03T04:55:38.532Z,24.45
2022-08-03T05:00:40.409Z,24.47
2022-08-03T05:05:49.022Z,24.51
2022-08-03T05:10:52.074Z,24.53
2022-08-03T05:15:53.990Z,24.56
2022-08-03T05:20:55.618Z,24.60
2022-08-03T05:25:57.366Z,24.64
2022-08-03T05:30:59.065Z,24.70
2022-08-03T05:36:04.306Z,24.74
2022-08-03T05:41:21.731Z,24.78
2022-08-03T05:46:26.430Z,24.83
2022-08-03T05:51:28.983Z,24.90
2022-08-03T05:56:33.793Z,24.95
2022-08-03T06:01:35.517Z,25.00
2022-08-03T06:06:37.218Z,25.05
2022-08-03T06:11:39.525Z,25.11
2022-08-03T06:16:42.114Z,25.16
2022-08-03T06:21:43.783Z,25.22
2022-08-03T06:26:47.023Z,25.27
2022-08-03T06:31:48.780Z,25.35
2022-08-03T06:36:52.469Z,25.42
2022-08-03T06:41:54.403Z,25.51
2022-08-03T06:46:57.443Z,25.61
2022-08-03T06:52:03.050Z,25.69
2022-08-03T06:57:08.425Z,25.77
2022-08-03T07:02:10.526Z,25.85
2022-08-03T07:07:12.857Z,25.94
2022-08-03T07:12:14.680Z,26.04
2022-08-03T07:17:16.514Z,26.11
2022-08-03T07:22:18.254Z,26.23
2022-08-03T07:27:20.452Z,26.35
2022-08-03T07:32:23.162Z,26.45
2022-08-03T07:37:25.537Z,26.58
2022-08-03T07:42:28.966Z,26.70
2022-08-03T07:47:36.095Z,26.84
2022-08-03T07:52:50.623Z,26.97
2022-08-03T07:58:16.499Z,27.10
2022-08-03T08:03:22.145Z,27.18
2022-08-03T08:08:23.785Z,27.31
2022-08-03T08:13:25.770Z,27.44
2022-08-03T08:18:39.781Z,27.60
2022-08-03T08:23:48.631Z,27.73
2022-08-03T08:28:59.048Z,27.87
2022-08-03T08:34:05.605Z,27.97
2022-08-03T08:39:07.520Z,28.02
2022-08-03T08:44:18.218Z,28.16
2022-08-03T08:49:23.419Z,28.29
2022-08-03T08:54:26.030Z,28.47
2022-08-03T08:59:48.204Z,28.63
2022-08-03T09:04:51.025Z,28.79
2022-08-03T09:10:10.141Z,28.93
2022-08-03T09:15:29.256Z,29.09
2022-08-03T09:20:36.989Z,29.21
2022-08-03T09:25:43.801Z,29.35
2022-08-03T09:30:59.568Z,29.51
2022-08-03T09:36:03.016Z,29.65
2022-08-03T09:41:18.351Z,29.79
2022-08-03T09:46:20.158Z,29.93
2022-08-03T09:52:28.946Z,30.08
2022-08-03T09:56:47.708Z,30.24
2022-08-03T10:01:49.424Z,30.38
2022-08-03T10:07:07.747Z,30.51
2022-08-03T10:12:12.358Z,30.63
2022-08-03T10:17:14.288Z,30.78
2022-08-03T10:22:21.744Z,30.90
2022-08-03T10:27:24.367Z,31.03
2022-08-03T10:32:31.752Z,31.15
2022-08-03T10:37:56.540Z,31.22
2022-08-03T10:43:17.691Z,31.30
2022-08-03T10:48:20.242Z,31.41
2022-08-03T10:53:54.229Z,31.59
2022-08-03T10:58:57.440Z,31.73
2022-08-03T11:03:59.690Z,31.84
2022-08-03T11:09:10.447Z,31.94
2022-08-03T11:14:15.339Z,32.10
2022-08-03T11:19:22.553Z,32.30
2022-08-03T11:24:54.299Z,32.52
2022-08-03T11:29:59.262Z,32.69
2022-08-03T11:35:12.309Z,32.78
2022-08-03T11:40:39.180Z,32.86
2022-08-03T11:45:57.796Z,32.92
2022-08-03T11:51:00.796Z,33.06
2022-08-03T11:56:03.571Z,33.19
2022-08-03T12:01:08.263Z,33.34
2022-08-03T12:06:12.416Z,33.52
2022-08-03T12:11:15.892Z,33.61
2022-08-03T12:16:23.961Z,33.72
2022-08-03T12:21:26.399Z,33.79
2022-08-03T12:26:30.098Z,33.91
2022-08-03T12:31:31.766Z,34.02
2022-08-03T12:36:36.042Z,34.12
2022-08-03T12:41:40.912Z,34.24
2022-08-03T12:46:47.704Z,34.36
2022-08-03T12:51:49.776Z,34.43
2022-08-03T12:57:10.308Z,34.52
2022-08-03T13:02:17.675Z,34.59
2022-08-03T13:07:21.226Z,34.61
2022-08-03T13:12:28.783Z,34.61
2022-08-03T13:17:30.533Z,34.69
2022-08-03T13:22:35.288Z,34.78
2022-08-03T13:28:04.864Z,34.90
2022-08-03T13:33:00.681Z,34.95
2022-08-03T13:38:02.603Z,35.06
2022-08-03T13:43:05.704Z,35.20
2022-08-03T13:48:09.652Z,35.19
2022-08-03T13:53:11.446Z,35.19
2022-08-03T13:58:13.697Z,35.31
2022-08-03T14:03:15.570Z,35.44
2022-08-03T14:08:17.514Z,35.59
2022-08-03T14:13:19.117Z,35.72
2022-08-03T14:18:29.118Z,35.83
2022-08-03T14:23:38.181Z,35.96
2022-08-03T14:28:40.607Z,36.11
2022-08-03T14:33:42.484Z,36.22
2022-08-03T14:38:44.277Z,36.30
2022-08-03T14:44:01.695Z,36.37
2022-08-03T14:50:35.966Z,36.53
2022-08-03T14:54:30.891Z,36.72
2022-08-03T14:59:56.104Z,36.86
2022-08-03T15:04:54.390Z,36.97
2022-08-03T15:09:56.038Z,37.03
2022-08-03T15:14:58.529Z,37.17
2022-08-03T15:20:23.347Z,37.31
2022-08-03T15:26:28.963Z,37.41
2022-08-03T15:30:43.814Z,37.55
2022-08-03T15:35:47.775Z,37.69
2022-08-03T15:40:49.619Z,37.78
2022-08-03T15:46:26.505Z,37.89
2022-08-03T15:51:13.947Z,38.00
2022-08-03T15:56:18.709Z,38.12
2022-08-03T16:01:21.649Z,38.26
2022-08-03T16:06:29.714Z,38.36
2022-08-03T16:11:37.377Z,38.51
2022-08-03T16:16:41.106Z,38.65
2022-08-03T16:21:48.788Z,38.75
2022-08-03T16:26:51.895Z,38.81
2022-08-03T16:31:53.490Z,38.89
2022-08-03T16:36:55.082Z,38.97
2022-08-03T16:42:01.327Z,38.95
2022-08-03T16:47:03.840Z,38.95
2022-08-03T16:52:07.173Z,38.98
2022-08-03T16:57:08.868Z,39.03
2022-08-03T17:02:21.173Z,39.10
2022-08-03T17:07:29.532Z,39.10
2022-08-03T17:12:31.958Z,39.11
2022-08-03T17:17:43.006Z,39.08
2022-08-03T17:23:34.577Z,39.06
2022-08-03T17:28:50.201Z,39.05
2022-08-03T17:33:55.462Z,39.00
2022-08-03T17:38:59.621Z,38.99
2022-08-03T17:44:15.466Z,38.96
2022-08-03T17:49:28.468Z,38.89
2022-08-03T17:55:55.386Z,38.83
2022-08-03T18:00:32.840Z,38.72
2022-08-03T18:06:12.391Z,38.52
2022-08-03T18:11:09.581Z,38.27
2022-08-03T18:16:24.839Z,37.94
2022-08-03T18:22:02.143Z,37.63
2022-08-03T18:26:53.055Z,37.30
2022-08-03T18:32:03.798Z,37.00
2022-08-03T18:37:07.759Z,36.73
2022-08-03T18:42:19.384Z,36.49
2022-08-03T18:47:51.792Z,36.23
2022-08-03T18:54:02.383Z,35.98
2022-08-03T18:59:17.160Z,35.74
2022-08-03T19:04:33.615Z,35.52
2022-08-03T19:09:56.241Z,35.32
2022-08-03T19:15:12.643Z,35.12
2022-08-03T19:20:14.780Z,34.92
2022-08-03T19:25:18.695Z,34.76
2022-08-03T19:30:38.952Z,34.58
2022-08-03T19:35:55.451Z,34.39
2022-08-03T19:41:03.743Z,34.22
2022-08-03T19:46:11.505Z,34.07
2022-08-03T19:51:56.632Z,33.88
2022-08-03T19:56:58.224Z,33.70
2022-08-03T20:02:05.032Z,33.53
2022-08-03T20:07:20.633Z,33.38
2022-08-03T20:17:58.625Z,33.11
2022-08-03T20:23:06.892Z,32.95
2022-08-03T20:28:15.994Z,32.84
2022-08-03T20:33:19.534Z,32.72
2022-08-03T20:38:35.045Z,32.60
2022-08-03T20:43:52.525Z,32.48
2022-08-03T20:48:58.800Z,32.38
2022-08-03T20:54:05.067Z,32.29
2022-08-03T20:59:23.557Z,32.20
2022-08-03T21:04:26.316Z,32.10
2022-08-03T21:09:42.302Z,32.01
2022-08-03T21:15:15.882Z,31.86
2022-08-03T21:20:42.052Z,31.77
2022-08-03T21:25:44.321Z,31.68
2022-08-03T21:30:46.736Z,31.59
2022-08-03T21:35:49.978Z,31.51
2022-08-03T21:40:53.351Z,31.43
2022-08-03T21:46:00.965Z,31.35
2022-08-03T21:51:03.830Z,31.27
2022-08-03T21:56:11.564Z,31.20
2022-08-03T22:01:14.163Z,31.13
2022-08-03T22:06:19.514Z,31.06
2022-08-03T22:11:22.102Z,30.98
2022-08-03T22:16:24.083Z,30.90
2022-08-03T22:21:36.128Z,30.82
2022-08-03T22:26:40.266Z,30.74
2022-08-03T22:31:58.381Z,30.67
2022-08-03T22:37:02.891Z,30.61
2022-08-03T22:42:05.478Z,30.54
2022-08-03T22:47:07.365Z,30.47
2022-08-03T22:52:11.939Z,30.41
2022-08-03T22:57:14.295Z,30.32
2022-08-03T23:02:21.255Z,30.25
2022-08-03T23:07:30.544Z,30.17
2022-08-03T23:12:35.006Z,30.11
2022-08-03T23:17:57.386Z,30.01
2022-08-03T23:23:02.497Z,29.96
2022-08-03T23:28:10.226Z,29.87
2022-08-03T23:33:13.764Z,29.77
2022-08-03T23:38:22.779Z,29.69
2022-08-03T23:43:52.192Z,29.61
2022-08-03T23:48:56.436Z,29.54
2022-08-03T23:54:17.202Z,29.47
2022-08-03T23:59:35.087Z,29.35
